Date,TemperatureHighF,TemperatureAvgF,TemperatureLowF,DewpointHighF,DewpointAvgF,DewpointLowF,HumidityHigh,HumidityAvg,HumidityLow,PressureMaxIn,PressureMinIn,WindSpeedMaxMPH,WindSpeedAvgMPH,GustSpeedMaxMPH,PrecipitationSumIn
2013-1-5,71,67,60,69,66,60,99,99,93,30.26,30.16,0,0,0,0.00
2013-1-6,73,66,63,73,66,63,99,99,99,30.19,30.06,4,0,9,0.00
2013-1-7,66,64,61,66,64,61,99,99,99,30.19,30.09,12,3,15,0.00
2013-1-8,78,70,64,77,70,64,99,97,91,30.19,30.10,8,2,15,0.00
2013-1-9,76,72,69,76,72,69,99,99,95,30.26,30.14,12,4,16,0.00
2013-1-10,79,72,69,76,72,69,99,96,82,30.27,30.18,8,2,12,0.00
2013-1-11,73,69,67,73,69,67,99,99,99,30.25,30.16,10,4,13,0.00
2013-1-12,77,71,67,76,70,67,99,99,95,30.17,30.07,10,3,12,0.00
2013-1-13,75,70,67,75,70,67,99,99,99,30.15,30.04,10,3,13,0.00
2013-1-14,76,71,67,73,69,67,99,95,77,30.17,30.09,9,3,12,0.00
2013-1-15,75,70,67,74,70,67,99,99,94,30.13,30.04,8,1,12,0.00
2013-1-16,76,71,68,75,70,68,99,97,86,30.09,30.00,8,1,11,0.00
2013-1-17,71,65,55,71,65,54,99,98,93,30.14,29.98,22,8,35,0.00
2013-1-18,64,55,45,64,55,45,99,98,94,30.29,30.14,17,4,24,0.00
2013-1-19,72,64,55,69,63,55,99,96,89,30.25,30.10,12,4,17,0.00
2013-1-20,72,66,62,71,66,62,99,99,95,30.15,30.02,8,1,10,0.00
2013-1-21,70,65,63,70,65,62,99,99,97,30.09,30.01,13,2,17,0.00
2013-1-22,66,61,58,62,53,44,98,75,48,30.26,30.06,12,3,18,0.00
2013-1-23,67,59,51,56,50,45,94,75,49,30.35,30.25,10,3,13,0.00
2013-1-24,66,60,51,64,58,51,99,94,80,30.32,30.23,13,3,17,0.00
2013-1-25,70,63,57,67,61,57,99,95,73,30.29,30.18,7,1,9,0.00
2013-1-26,68,63,57,68,63,57,99,99,96,30.27,30.16,12,2,17,0.00
2013-1-27,75,67,60,69,63,60,99,89,64,30.28,30.19,11,2,14,0.00
2013-1-28,75,69,65,72,69,65,99,97,90,30.29,30.19,8,2,12,0.00
2013-1-29,76,70,65,76,70,65,99,99,96,30.22,30.07,12,5,14,0.00
2013-1-30,75,71,68,74,71,68,99,99,97,30.09,29.91,22,9,34,0.00
2013-1-31,70,58,53,70,52,44,99,81,64,30.22,29.91,19,7,23,0.00
2013-2-1,66,58,50,55,47,40,95,70,38,30.34,30.21,13,4,17,0.00
2013-2-2,68,58,51,59,54,46,98,86,45,30.28,30.14,11,4,15,0.00
2013-3-22,56,56,55,-100,-100,-100,0,0,100,29.94,29.94,6,6,12,0.00
2013-3-25,60,59,58,56,55,53,89,85,82,30.05,29.99,14,8,19,0.00
2013-3-26,60,54,51,57,48,44,90,82,70,30.24,30.03,22,10,31,0.00
2013-3-27,53,50,47,50,46,41,96,86,71,30.32,30.21,16,5,21,0.00
2013-3-28,64,56,49,55,50,43,99,81,48,30.29,30.19,13,5,19,0.00
2013-3-29,72,62,54,62,55,44,99,82,39,30.31,30.19,13,3,15,0.00
2013-3-30,70,64,58,68,63,57,99,96,90,30.23,30.14,10,3,15,0.00
2013-3-31,73,68,63,69,65,-100,99,95,82,30.16,30.01,11,4,16,0.00
2013-4-1,72,69,67,72,69,67,99,99,99,30.03,29.95,9,4,14,0.00
2013-4-2,70,68,66,70,68,66,99,99,99,30.09,30.00,9,3,12,0.00
2013-4-3,76,71,67,76,71,67,99,99,92,30.07,29.93,12,5,18,0.00
2013-4-4,72,70,67,72,70,67,99,99,99,30.05,29.85,15,5,20,0.00
2013-4-5,69,67,63,69,67,63,99,99,96,29.98,29.81,19,9,24,0.00
2013-4-6,68,63,58,68,63,58,99,98,93,30.09,29.98,15,6,20,0.00
2013-4-7,77,70,64,72,68,64,99,93,68,30.14,30.03,11,4,15,0.00
2013-4-8,80,72,67,73,69,64,99,92,58,30.12,30.03,11,6,15,0.00
2013-4-9,79,73,68,75,72,68,99,96,81,30.14,30.05,14,4,16,0.00
2013-4-10,80,74,68,76,72,68,99,96,85,30.10,29.95,14,4,16,0.00
2013-4-11,81,76,72,79,75,72,99,98,92,29.98,29.80,18,8,23,0.00
2013-4-12,76,75,74,76,75,74,99,99,99,29.88,29.85,13,8,22,0.00
2013-4-19,80,77,75,79,77,75,99,99,97,30.00,29.93,13,8,20,0.00
2013-4-20,76,71,65,76,70,65,99,99,95,30.12,29.96,14,6,19,0.00
2013-4-21,79,70,63,77,70,63,99,98,92,30.12,30.00,14,6,18,0.00
2013-4-22,78,72,69,77,72,69,99,99,96,30.06,29.96,14,4,21,0.00
2013-4-23,81,72,67,75,71,67,99,96,72,30.10,30.00,13,6,23,0.00
2013-4-24,79,72,68,74,71,67,99,95,66,30.13,30.06,13,6,18,0.00
2013-4-25,77,74,71,76,73,71,99,98,92,30.20,30.09,16,5,18,0.00
2013-4-26,79,74,71,77,73,70,99,96,77,30.23,30.13,13,3,19,0.00
2013-4-27,83,75,72,76,74,70,99,94,67,30.20,30.06,17,6,19,0.00
2013-4-28,80,75,71,75,72,-100,99,95,76,30.11,29.96,17,6,19,0.00
2013-4-29,80,75,72,77,74,70,99,96,90,30.01,29.89,13,5,19,0.00
2013-4-30,83,75,70,79,75,70,99,97,82,29.98,29.89,16,4,23,0.00
2013-5-1,74,71,68,74,71,68,99,99,99,29.98,29.90,13,4,21,0.00
2013-5-2,76,72,68,76,72,68,99,99,99,29.96,29.81,10,3,14,0.00
2013-5-3,76,73,71,76,73,71,99,99,99,29.82,29.72,13,4,18,0.00
2013-5-4,75,72,69,75,72,69,99,99,99,29.81,29.68,21,4,24,0.00
2013-5-5,71,69,66,70,65,59,99,87,66,29.93,29.80,19,7,23,0.00
2013-5-6,72,69,66,70,67,65,98,93,88,30.01,29.89,14,2,22,0.00
2013-5-7,73,70,66,70,67,65,97,91,84,30.06,29.96,12,2,14,0.00
2013-5-8,74,72,69,71,69,68,98,92,84,30.13,30.03,8,1,11,0.00
2013-5-9,76,73,70,74,72,68,99,96,76,30.15,30.07,12,1,14,0.00
2013-5-10,80,74,70,78,71,-100,99,97,85,30.13,29.99,10,1,10,0.00
2013-5-11,80,76,74,80,76,74,99,99,99,30.05,29.98,11,1,14,0.00
2013-5-12,78,75,74,78,74,-100,99,99,97,30.04,29.93,10,1,11,0.00
2013-5-13,79,74,71,74,68,58,99,83,56,30.12,30.00,12,1,20,0.00
2013-5-14,78,72,66,69,60,50,90,68,40,30.20,30.10,7,1,19,0.00
2013-5-15,83,74,70,72,68,60,94,81,49,30.19,30.06,11,3,17,0.00
2013-5-16,78,68,71,74,43,-100,99,93,78,30.12,29.99,12,3,12,0.00
2013-5-17,78,74,72,76,68,-100,99,97,92,30.09,30.01,11,1,12,0.00
2013-5-18,79,75,73,79,75,73,99,99,97,30.10,30.01,0,0,9,0.00
2013-5-19,80,76,74,77,75,74,99,96,88,30.09,29.98,8,0,9,0.00
2013-5-20,82,77,74,80,76,74,99,97,91,30.06,29.96,7,0,14,0.00
2013-5-21,81,76,72,79,75,72,99,98,92,30.03,29.91,8,0,16,0.00
2013-5-22,79,76,73,78,76,73,99,99,98,29.97,29.88,13,1,15,0.00
2013-5-23,80,77,75,79,77,75,99,99,96,30.01,29.91,0,0,9,0.00
2013-5-24,83,78,75,81,77,72,99,96,75,30.06,29.97,0,0,0,0.00
2013-5-25,89,81,75,77,73,65,98,79,45,30.15,30.03,0,0,13,0.00
2013-5-26,84,77,72,73,67,59,97,74,45,30.19,30.09,5,0,14,0.00
2013-5-27,87,78,73,74,71,68,98,81,55,30.16,30.03,4,0,12,0.00
2013-5-28,87,77,73,81,76,73,99,96,75,30.13,30.00,0,0,7,0.00
2013-5-29,84,77,73,81,76,73,99,96,82,30.07,29.99,2,0,11,0.00
2013-5-30,85,78,74,81,77,74,99,95,82,30.06,29.98,0,0,1,0.00
2013-5-31,85,77,74,80,77,74,99,98,83,30.06,29.97,0,0,8,0.00
2013-6-1,84,77,74,82,77,74,99,99,93,30.03,29.94,0,0,4,0.00
2013-6-2,82,77,74,82,76,-100,99,99,99,29.98,29.89,4,0,8,0.00
2013-6-3,81,78,76,81,78,76,99,99,98,29.98,29.89,0,0,0,0.00
2013-6-4,81,78,75,80,78,75,99,98,94,30.00,29.93,8,0,9,0.00
2013-6-5,81,77,74,80,77,74,99,99,96,29.99,29.87,8,0,9,0.00
2013-6-6,75,75,74,75,75,74,99,99,99,29.87,29.69,0,0,8,0.00
2013-7-10,84,79,76,81,79,76,99,98,91,30.07,29.95,0,0,5,0.00
2013-7-11,83,79,76,82,79,76,99,98,95,30.01,29.91,2,0,10,0.00
2013-7-12,84,80,75,83,80,75,99,98,94,29.95,29.89,6,0,8,0.00
2013-7-13,83,79,76,82,79,76,99,99,96,29.96,29.89,8,0,18,0.02
2013-7-14,83,77,75,83,77,75,99,99,96,30.06,29.93,11,1,18,0.02
2013-7-15,89,78,75,81,77,75,99,97,76,30.09,29.99,4,0,13,0.00
2013-7-16,87,77,75,82,77,75,99,98,78,30.12,30.05,11,0,14,0.00
2013-7-17,85,77,75,82,77,75,99,98,90,30.14,30.05,13,0,30,0.00
2013-7-18,82,76,74,81,76,74,99,99,94,30.10,30.03,5,0,10,0.00
2013-7-19,84,77,74,83,77,74,99,99,97,30.11,30.03,11,1,22,0.00
2013-7-20,84,78,75,84,78,75,99,99,99,30.09,30.00,9,1,11,0.00
2013-7-21,85,80,76,85,80,76,99,99,97,30.11,30.03,8,0,12,0.00
2013-7-22,85,82,79,85,82,79,99,99,98,30.13,30.05,7,0,11,0.00
2013-7-23,85,82,80,83,81,80,99,98,93,30.08,29.96,0,0,11,0.00
2013-7-24,84,82,79,83,81,79,99,98,95,30.01,29.91,11,1,17,0.00
2013-7-25,84,82,80,84,82,80,99,99,96,30.00,29.88,11,1,18,0.00
2013-7-26,85,81,77,85,81,77,99,99,99,30.01,29.94,9,0,10,0.00
2013-7-27,85,82,80,83,81,80,99,98,92,29.99,29.94,4,0,10,0.00
2013-7-28,85,82,79,84,81,79,99,98,94,30.04,29.93,0,0,0,0.00
2013-7-29,84,80,78,83,80,78,99,98,92,30.12,30.01,0,0,7,0.00
2013-7-30,85,81,79,83,80,78,99,98,93,30.16,30.08,0,0,6,0.00
2013-7-31,87,81,78,84,81,78,99,98,88,30.12,30.01,7,1,10,0.00
2013-8-1,85,81,77,83,80,77,99,98,93,30.04,29.94,9,0,16,0.00
2013-8-2,85,80,77,84,80,77,99,98,95,30.03,29.93,10,2,11,0.00
2013-8-3,86,83,80,84,82,79,99,96,93,30.08,29.99,0,0,6,0.00
2013-8-4,86,84,82,85,83,82,99,98,95,30.08,29.99,8,0,9,0.00
2013-8-5,87,84,82,85,83,82,99,98,93,30.02,29.93,6,0,8,0.00
2013-8-6,87,83,81,86,83,81,99,99,95,29.97,29.89,7,1,10,0.00
2013-8-7,85,80,74,85,80,74,99,99,99,29.95,29.88,0,0,22,2.60
2013-8-8,86,79,75,84,79,75,99,99,93,30.00,29.91,4,0,11,6.10
2013-8-9,86,79,75,83,79,75,99,98,85,30.03,29.95,6,0,14,1.14
2013-8-10,88,81,77,85,80,77,99,98,90,30.11,30.02,3,0,12,0.16
2013-8-11,87,82,78,84,81,78,99,98,91,30.13,30.05,11,2,15,0.50
2013-8-12,87,82,79,85,82,79,99,99,95,30.12,29.99,6,0,9,0.12
2013-8-13,86,80,79,85,76,-100,99,96,96,30.06,29.93,8,2,14,0.16
2013-8-21,92,79,76,84,79,76,99,98,71,30.08,29.97,0,0,3,0.16
2013-8-22,85,78,75,84,78,75,99,99,98,30.07,29.98,0,0,11,0.32
2013-8-23,86,79,77,85,79,77,99,99,93,30.00,29.94,0,0,5,0.30
2013-8-24,86,80,77,85,79,77,99,98,91,30.09,29.98,3,0,9,0.22
2013-8-25,86,77,76,83,75,-100,99,96,90,30.14,30.06,0,0,7,0.04
2013-8-26,90,79,75,84,78,75,99,97,72,30.13,30.01,0,0,4,0.16
2013-8-27,87,78,76,83,78,76,99,98,81,30.04,29.97,0,0,5,0.10
2013-8-28,88,80,76,80,78,76,99,96,75,30.02,29.98,0,0,0,0.02
2013-8-29,84,80,77,82,79,76,99,97,93,30.02,29.93,7,0,7,0.18
2013-8-30,84,81,75,83,81,75,99,99,96,29.99,29.89,0,0,0,0.04
2013-8-31,84,81,73,82,80,73,99,96,92,29.97,29.88,0,0,0,0.04
2013-9-1,85,81,76,83,80,76,99,98,91,29.97,29.91,0,0,0,0.00
2013-9-2,85,81,76,84,80,76,99,98,94,30.01,29.93,0,0,0,0.00
2013-9-3,84,81,75,82,80,75,99,97,92,30.02,29.93,0,0,9,0.00
2013-9-4,84,80,76,83,80,76,99,98,95,30.07,29.96,0,0,0,0.00
2013-9-5,87,80,77,84,80,77,99,99,91,30.08,30.00,0,0,0,0.00
2013-9-6,87,81,75,86,81,75,99,97,91,30.04,29.93,0,0,7,0.00
2013-9-7,85,78,75,82,78,75,99,97,87,30.01,29.91,0,0,7,0.00
2013-9-8,87,78,76,81,75,-100,99,93,78,29.96,29.86,0,0,11,0.00
2013-9-9,91,82,77,81,78,77,99,90,66,30.01,29.92,0,0,8,0.00
2013-9-10,89,81,77,82,78,73,99,91,63,30.06,29.98,0,0,0,0.00
2013-9-14,85,81,78,83,80,78,99,98,91,29.96,29.83,0,0,0,0.00
2013-9-15,92,76,73,82,73,-100,99,95,73,30.07,29.95,9,0,9,0.00
2013-9-16,85,78,75,82,77,75,99,99,92,30.06,29.97,8,0,11,0.00
2013-9-17,85,77,75,83,77,75,99,98,88,30.04,29.93,11,2,30,0.00
2013-9-18,77,76,76,77,76,76,99,99,99,29.99,29.96,6,1,14,0.00
2013-9-19,88,78,75,83,78,75,99,98,80,30.04,29.95,16,2,16,0.00
2013-9-20,76,76,76,76,76,76,99,99,99,30.01,29.97,7,2,10,0.00